createdAt,value
2023-03-15T00:00:12.562Z,17.04
2023-03-15T00:03:04.813Z,17.05
2023-03-15T00:05:33.455Z,17.02
2023-03-15T00:08:04.397Z,17.05
2023-03-15T00:10:33.188Z,17.04
2023-03-15T00:13:01.429Z,17.02
2023-03-15T00:15:30.115Z,17.02
2023-03-15T00:17:58.560Z,17.02
2023-03-15T00:20:27.431Z,17.02
2023-03-15T00:22:55.793Z,17.02
2023-03-15T00:25:24.461Z,17.01
2023-03-15T00:27:52.732Z,17.01
2023-03-15T00:30:21.366Z,17.01
2023-03-15T00:32:49.715Z,16.98
2023-03-15T00:35:18.574Z,17.01
2023-03-15T00:37:46.961Z,17.02
2023-03-15T00:40:15.729Z,17.01
2023-03-15T00:42:50.379Z,17.00
2023-03-15T00:45:20.971Z,17.01
2023-03-15T00:47:50.830Z,17.00
2023-03-15T00:50:19.689Z,16.99
2023-03-15T00:52:47.964Z,16.99
2023-03-15T00:55:19.363Z,16.97
2023-03-15T00:57:49.717Z,16.98
2023-03-15T01:00:24.994Z,16.98
2023-03-15T01:02:54.382Z,16.94
2023-03-15T01:05:23.115Z,16.93
2023-03-15T01:07:52.007Z,16.97
2023-03-15T01:10:20.366Z,16.96
2023-03-15T01:12:48.365Z,16.97
2023-03-15T01:15:17.073Z,16.94
2023-03-15T01:17:45.205Z,16.96
2023-03-15T01:20:14.526Z,16.96
2023-03-15T01:22:43.534Z,16.95
2023-03-15T01:25:11.805Z,16.94
2023-03-15T01:27:39.960Z,16.95
2023-03-15T01:30:08.904Z,16.95
2023-03-15T01:32:36.952Z,16.94
2023-03-15T01:35:06.105Z,16.94
2023-03-15T01:37:34.711Z,16.95
2023-03-15T01:40:06.751Z,16.93
2023-03-15T01:42:55.014Z,16.92
2023-03-15T01:46:00.608Z,16.94
2023-03-15T01:48:31.864Z,16.92
2023-03-15T01:51:02.655Z,16.92
2023-03-15T01:53:32.533Z,16.91
2023-03-15T01:56:01.930Z,16.90
2023-03-15T01:58:37.026Z,16.90
2023-03-15T02:01:06.579Z,16.90
2023-03-15T02:03:46.892Z,16.90
2023-03-15T02:06:20.754Z,16.89
2023-03-15T02:08:57.175Z,16.90
2023-03-15T02:11:28.038Z,16.89
2023-03-15T02:13:58.200Z,16.90
2023-03-15T02:16:29.101Z,16.90
2023-03-15T02:19:00.947Z,16.90
2023-03-15T02:21:54.906Z,16.88
2023-03-15T02:24:44.857Z,16.85
2023-03-15T02:27:13.293Z,16.88
2023-03-15T02:29:43.105Z,16.88
2023-03-15T02:32:11.396Z,16.86
2023-03-15T02:34:39.361Z,16.86
2023-03-15T02:37:08.008Z,16.83
2023-03-15T02:39:35.986Z,16.82
2023-03-15T02:42:04.348Z,16.83
2023-03-15T02:44:38.476Z,16.84
2023-03-15T02:47:11.879Z,16.83
2023-03-15T02:49:43.233Z,16.82
2023-03-15T02:52:14.293Z,16.80
2023-03-15T02:54:45.329Z,16.82
2023-03-15T02:57:15.430Z,16.82
2023-03-15T02:59:44.822Z,16.80
2023-03-15T03:02:14.564Z,16.77
2023-03-15T03:04:44.546Z,16.78
2023-03-15T03:07:13.268Z,16.78
2023-03-15T03:09:49.480Z,16.81
2023-03-15T03:12:19.170Z,16.74
2023-03-15T03:14:47.204Z,16.79
2023-03-15T03:17:19.179Z,16.79
2023-03-15T03:19:47.301Z,16.79
2023-03-15T03:22:18.235Z,16.76
2023-03-15T03:24:46.466Z,16.79
2023-03-15T03:27:17.876Z,16.77
2023-03-15T03:29:48.019Z,16.77
2023-03-15T03:32:17.686Z,16.74
2023-03-15T03:34:48.770Z,16.76
2023-03-15T03:37:21.764Z,16.76
2023-03-15T03:39:56.106Z,16.77
2023-03-15T03:42:25.194Z,16.73
2023-03-15T03:44:54.767Z,16.74
2023-03-15T03:47:25.642Z,16.74
2023-03-15T03:49:53.649Z,16.75
2023-03-15T03:52:22.191Z,16.75
2023-03-15T03:54:52.896Z,16.74
2023-03-15T03:57:21.945Z,16.75
2023-03-15T03:59:50.192Z,16.73
2023-03-15T04:02:18.778Z,16.70
2023-03-15T04:04:57.220Z,16.69
2023-03-15T04:07:25.863Z,16.71
2023-03-15T04:09:54.961Z,16.70
2023-03-15T04:12:23.379Z,16.72
2023-03-15T04:14:54.810Z,16.72
2023-03-15T04:17:25.452Z,16.70
2023-03-15T04:19:53.502Z,16.66
2023-03-15T04:22:27.880Z,16.66
2023-03-15T04:24:58.835Z,16.66
2023-03-15T04:27:59.962Z,16.67
2023-03-15T04:30:44.196Z,16.68
2023-03-15T04:33:32.539Z,16.67
2023-03-15T04:36:09.364Z,16.66
2023-03-15T04:38:47.768Z,16.67
2023-03-15T04:41:42.237Z,16.66
2023-03-15T04:44:39.873Z,16.64
2023-03-15T04:47:20.850Z,16.65
2023-03-15T04:50:08.540Z,16.62
2023-03-15T04:52:59.619Z,16.63
2023-03-15T04:55:48.121Z,16.61
2023-03-15T04:58:23.226Z,16.61
2023-03-15T05:01:30.697Z,16.63
2023-03-15T05:04:17.710Z,16.63
2023-03-15T05:07:05.339Z,16.64
2023-03-15T05:09:46.920Z,16.65
2023-03-15T05:12:34.210Z,16.65
2023-03-15T05:15:27.191Z,16.68
2023-03-15T05:18:14.441Z,16.73
2023-03-15T05:21:06.305Z,16.76
2023-03-15T05:24:00.719Z,16.79
2023-03-15T05:26:35.275Z,16.85
2023-03-15T05:29:30.140Z,16.90
2023-03-15T05:32:14.099Z,16.95
2023-03-15T05:35:04.691Z,17.02
2023-03-15T05:37:44.307Z,17.14
2023-03-15T05:40:44.433Z,17.19
2023-03-15T05:43:29.346Z,17.38
2023-03-15T05:46:16.426Z,17.37
2023-03-15T05:49:04.792Z,17.48
2023-03-15T05:51:41.883Z,17.61
2023-03-15T05:54:30.309Z,17.62
2023-03-15T05:56:58.646Z,17.69
2023-03-15T05:59:26.676Z,17.76
2023-03-15T06:02:13.790Z,17.77
2023-03-15T06:04:51.198Z,17.84
2023-03-15T06:07:23.997Z,17.77
2023-03-15T06:09:52.257Z,17.74
2023-03-15T06:12:20.708Z,17.79
2023-03-15T06:14:50.080Z,17.74
2023-03-15T06:17:18.758Z,17.71
2023-03-15T06:19:46.868Z,17.78
2023-03-15T06:22:15.261Z,17.74
2023-03-15T06:24:50.683Z,17.68
2023-03-15T06:27:22.315Z,17.61
2023-03-15T06:29:54.418Z,17.63
2023-03-15T06:32:24.773Z,17.57
2023-03-15T06:34:53.217Z,17.62
2023-03-15T06:37:34.263Z,17.65
2023-03-15T06:40:11.073Z,17.58
2023-03-15T06:42:41.978Z,17.53
2023-03-15T06:45:13.254Z,17.57
2023-03-15T06:47:41.695Z,17.56
2023-03-15T06:50:10.915Z,17.52
2023-03-15T06:52:39.387Z,17.50
2023-03-15T06:55:07.889Z,17.53
2023-03-15T06:57:36.251Z,17.47
2023-03-15T07:00:11.429Z,17.46
2023-03-15T07:02:40.214Z,17.47
2023-03-15T07:05:10.169Z,17.40
2023-03-15T07:07:38.637Z,17.42
2023-03-15T07:10:07.552Z,17.40
2023-03-15T07:12:35.853Z,17.40
2023-03-15T07:15:04.328Z,17.39
2023-03-15T07:17:32.951Z,17.37
2023-03-15T07:20:01.210Z,17.36
2023-03-15T07:22:29.651Z,17.34
2023-03-15T07:24:57.722Z,17.35
2023-03-15T07:27:26.601Z,17.36
2023-03-15T07:29:56.094Z,17.33
2023-03-15T07:32:24.589Z,17.34
2023-03-15T07:34:52.960Z,17.35
2023-03-15T07:37:21.330Z,17.33
2023-03-15T07:39:49.359Z,17.35
2023-03-15T07:42:17.944Z,17.36
2023-03-15T07:44:51.498Z,17.37
2023-03-15T07:47:19.858Z,17.42
2023-03-15T07:49:47.977Z,17.45
2023-03-15T07:52:16.319Z,17.43
2023-03-15T07:54:44.380Z,17.44
2023-03-15T07:57:13.248Z,17.45
2023-03-15T07:59:41.249Z,17.49
2023-03-15T08:02:13.742Z,17.47
2023-03-15T08:04:42.275Z,17.47
2023-03-15T08:07:11.306Z,17.49
2023-03-15T08:09:39.932Z,17.47
2023-03-15T08:12:08.507Z,17.51
2023-03-15T08:14:37.648Z,17.45
2023-03-15T08:17:06.107Z,17.47
2023-03-15T08:19:34.126Z,17.49
2023-03-15T08:22:02.825Z,17.49
2023-03-15T08:24:30.828Z,17.48
2023-03-15T08:26:59.178Z,17.49
2023-03-15T08:29:27.494Z,17.49
2023-03-15T08:31:56.017Z,17.49
2023-03-15T08:34:24.776Z,17.47
2023-03-15T08:36:53.170Z,17.42
2023-03-15T08:39:24.101Z,17.38
2023-03-15T08:41:52.489Z,17.42
2023-03-15T08:44:20.681Z,17.38
2023-03-15T08:46:49.136Z,17.34
2023-03-15T08:49:17.278Z,17.36
2023-03-15T08:51:45.807Z,17.36
2023-03-15T08:54:14.616Z,17.36
2023-03-15T08:56:43.067Z,17.33
2023-03-15T08:59:12.817Z,17.33
2023-03-15T09:01:44.996Z,17.34
2023-03-15T09:04:13.431Z,17.32
2023-03-15T09:06:42.430Z,17.29
2023-03-15T09:09:10.528Z,17.32
2023-03-15T09:11:38.914Z,17.31
2023-03-15T09:14:07.152Z,17.27
2023-03-15T09:16:36.018Z,17.28
2023-03-15T09:19:04.285Z,17.22
2023-03-15T09:21:32.817Z,17.20
2023-03-15T09:24:01.014Z,17.18
2023-03-15T09:26:29.422Z,17.16
2023-03-15T09:28:57.639Z,17.16
2023-03-15T09:31:26.201Z,17.16
2023-03-15T09:33:54.380Z,17.17
2023-03-15T09:36:23.179Z,17.16
2023-03-15T09:38:51.309Z,17.15
2023-03-15T09:41:43.700Z,17.15
2023-03-15T09:44:33.066Z,17.17
2023-03-15T09:47:08.417Z,17.16
2023-03-15T09:50:17.853Z,17.17
2023-03-15T09:52:49.675Z,17.16
2023-03-15T09:55:23.095Z,17.19
2023-03-15T09:57:55.767Z,17.18
2023-03-15T10:00:40.930Z,17.20
2023-03-15T10:03:27.746Z,17.20
2023-03-15T10:06:08.338Z,17.24
2023-03-15T10:08:36.946Z,17.28
2023-03-15T10:11:13.758Z,17.33
2023-03-15T10:13:42.663Z,17.37
2023-03-15T10:16:20.884Z,17.37
2023-03-15T10:19:31.178Z,17.39
2023-03-15T10:22:20.192Z,17.39
2023-03-15T10:25:00.767Z,17.36
2023-03-15T10:27:28.736Z,17.39
2023-03-15T10:29:59.209Z,17.36
2023-03-15T10:32:38.421Z,17.31
2023-03-15T10:35:15.364Z,17.29
2023-03-15T10:37:44.123Z,17.33
2023-03-15T10:40:16.568Z,17.29
2023-03-15T10:42:48.089Z,17.26
2023-03-15T10:45:24.096Z,17.30
2023-03-15T10:48:00.349Z,17.26
2023-03-15T10:50:33.697Z,17.26
2023-03-15T10:53:02.836Z,17.27
2023-03-15T10:55:37.292Z,17.27
2023-03-15T10:58:25.755Z,17.25
2023-03-15T11:01:09.751Z,17.30
2023-03-15T11:03:38.630Z,17.32
2023-03-15T11:06:24.612Z,17.35
2023-03-15T11:08:52.891Z,17.31
2023-03-15T11:11:21.767Z,17.32
2023-03-15T11:14:00.740Z,17.35
2023-03-15T11:16:34.639Z,17.34
2023-03-15T11:19:04.439Z,17.35
2023-03-15T11:21:34.635Z,17.36
2023-03-15T11:24:04.884Z,17.33
2023-03-15T11:26:38.738Z,17.31
2023-03-15T11:29:34.028Z,17.33
2023-03-15T11:32:10.987Z,17.34
2023-03-15T11:34:52.988Z,17.38
2023-03-15T11:37:25.749Z,17.39
2023-03-15T11:40:22.405Z,17.38
2023-03-15T11:43:08.433Z,17.38
2023-03-15T11:45:51.352Z,17.37
2023-03-15T11:48:43.470Z,17.38
2023-03-15T11:51:13.086Z,17.38
2023-03-15T11:54:17.995Z,17.39
2023-03-15T11:56:50.392Z,17.39
2023-03-15T11:59:33.618Z,17.36
2023-03-15T12:02:11.086Z,17.38
2023-03-15T12:04:48.265Z,17.39
2023-03-15T12:07:19.795Z,17.37
2023-03-15T12:10:03.561Z,17.37
2023-03-15T12:12:31.707Z,17.38
2023-03-15T12:15:07.514Z,17.41
2023-03-15T12:17:39.308Z,17.39
2023-03-15T12:20:14.715Z,17.37
2023-03-15T12:22:48.964Z,17.35
2023-03-15T12:25:32.547Z,17.37
2023-03-15T12:28:26.589Z,17.37
2023-03-15T12:30:59.482Z,17.36
2023-03-15T12:33:28.700Z,17.41
2023-03-15T12:36:22.069Z,17.36
2023-03-15T12:39:02.808Z,17.34
2023-03-15T12:41:38.891Z,17.37
2023-03-15T12:44:22.233Z,17.36
2023-03-15T12:46:50.664Z,17.36
2023-03-15T12:49:24.662Z,17.36
2023-03-15T12:52:00.630Z,17.39
2023-03-15T12:54:53.568Z,17.37
2023-03-15T12:57:30.048Z,17.37
2023-03-15T13:00:12.081Z,17.37
2023-03-15T13:03:19.511Z,17.38
2023-03-15T13:06:04.533Z,17.38
2023-03-15T13:09:07.361Z,17.39
2023-03-15T13:11:56.459Z,17.40
2023-03-15T13:14:52.694Z,17.40
2023-03-15T13:17:45.530Z,17.42
2023-03-15T13:20:35.492Z,17.44
2023-03-15T13:23:16.162Z,17.42
2023-03-15T13:26:08.610Z,17.44
2023-03-15T13:28:43.749Z,17.43
2023-03-15T13:31:24.084Z,17.44
2023-03-15T13:33:57.754Z,17.43
2023-03-15T13:36:28.957Z,17.48
2023-03-15T13:38:57.854Z,17.46
2023-03-15T13:41:31.262Z,17.48
2023-03-15T13:44:01.728Z,17.48
2023-03-15T13:46:31.528Z,17.48
2023-03-15T13:49:00.923Z,17.49
2023-03-15T13:51:33.730Z,17.46
2023-03-15T13:54:24.531Z,17.50
2023-03-15T13:57:01.596Z,17.48
2023-03-15T13:59:54.697Z,17.52
2023-03-15T14:02:28.849Z,17.50
2023-03-15T14:05:00.083Z,17.50
2023-03-15T14:07:49.135Z,17.54
2023-03-15T14:10:24.396Z,17.55
2023-03-15T14:12:53.321Z,17.55
2023-03-15T14:15:29.485Z,17.56
2023-03-15T14:18:25.455Z,17.57
2023-03-15T14:21:02.592Z,17.58
2023-03-15T14:23:31.853Z,17.59
2023-03-15T14:26:06.829Z,17.59
2023-03-15T14:28:35.599Z,17.61
2023-03-15T14:31:03.871Z,17.61
2023-03-15T14:33:38.494Z,17.62
2023-03-15T14:36:21.064Z,17.61
2023-03-15T14:38:54.694Z,17.60
2023-03-15T14:41:28.442Z,17.65
2023-03-15T14:43:56.856Z,17.67
2023-03-15T14:46:24.883Z,17.68
2023-03-15T14:48:53.584Z,17.69
2023-03-15T14:51:23.316Z,17.69
2023-03-15T14:53:54.607Z,17.68
2023-03-15T14:56:24.084Z,17.72
2023-03-15T14:58:54.352Z,17.72
2023-03-15T15:01:27.664Z,17.73
2023-03-15T15:04:03.273Z,17.72
2023-03-15T15:06:36.906Z,17.72
2023-03-15T15:09:06.553Z,17.73
2023-03-15T15:11:34.896Z,17.76
2023-03-15T15:14:03.244Z,17.75
2023-03-15T15:16:31.340Z,17.77
2023-03-15T15:18:59.773Z,17.75
2023-03-15T15:21:33.484Z,17.79
2023-03-15T15:24:12.431Z,17.76
2023-03-15T15:26:40.623Z,17.78
2023-03-15T15:29:16.613Z,17.79
2023-03-15T15:31:45.416Z,17.81
2023-03-15T15:34:13.968Z,17.81
2023-03-15T15:36:43.835Z,17.82
2023-03-15T15:39:22.024Z,17.77
2023-03-15T15:41:50.399Z,17.82
2023-03-15T15:44:24.202Z,17.83
2023-03-15T15:46:52.526Z,17.85
2023-03-15T15:49:21.301Z,17.86
2023-03-15T15:51:50.104Z,17.84
2023-03-15T15:54:21.772Z,17.84
2023-03-15T15:56:52.003Z,17.83
2023-03-15T15:59:20.839Z,17.85
2023-03-15T16:02:00.541Z,17.84
2023-03-15T16:04:30.342Z,17.86
2023-03-15T16:07:04.458Z,17.88
2023-03-15T16:09:36.420Z,17.95
2023-03-15T16:12:13.027Z,17.99
2023-03-15T16:14:42.658Z,18.05
2023-03-15T16:17:18.456Z,18.11
2023-03-15T16:19:48.646Z,18.25
2023-03-15T16:22:19.159Z,18.35
2023-03-15T16:24:51.773Z,18.39
2023-03-15T16:27:25.010Z,18.45
2023-03-15T16:29:56.063Z,18.50
2023-03-15T16:32:40.960Z,18.48
2023-03-15T16:35:15.901Z,18.46
2023-03-15T16:37:44.848Z,18.44
2023-03-15T16:40:23.283Z,18.45
2023-03-15T16:42:51.345Z,18.39
2023-03-15T16:45:20.256Z,18.32
2023-03-15T16:47:48.910Z,18.31
2023-03-15T16:50:17.674Z,18.28
2023-03-15T16:52:47.606Z,18.25
2023-03-15T16:55:18.933Z,18.25
2023-03-15T16:57:47.737Z,18.21
2023-03-15T17:00:20.502Z,18.20
2023-03-15T17:02:51.864Z,18.17
2023-03-15T17:05:21.280Z,18.15
2023-03-15T17:07:51.036Z,18.12
2023-03-15T17:10:19.348Z,18.10
2023-03-15T17:12:47.669Z,18.06
2023-03-15T17:15:20.828Z,18.07
2023-03-15T17:17:49.547Z,18.00
2023-03-15T17:20:28.108Z,17.98
2023-03-15T17:22:58.799Z,17.96
2023-03-15T17:25:27.631Z,17.94
2023-03-15T17:27:55.722Z,17.93
2023-03-15T17:30:29.417Z,17.94
2023-03-15T17:32:58.273Z,17.92
2023-03-15T17:35:33.975Z,17.91
2023-03-15T17:38:06.255Z,17.88
2023-03-15T17:40:36.521Z,17.87
2023-03-15T17:43:05.121Z,17.81
2023-03-15T17:45:34.664Z,17.81
2023-03-15T17:48:02.897Z,17.82
2023-03-15T17:50:32.982Z,17.81
2023-03-15T17:53:03.460Z,17.77
2023-03-15T17:55:35.147Z,17.77
2023-03-15T17:58:06.283Z,17.76
2023-03-15T18:00:34.902Z,17.74
2023-03-15T18:03:03.162Z,17.73
2023-03-15T18:05:31.467Z,17.74
2023-03-15T18:08:00.233Z,17.71
2023-03-15T18:10:34.856Z,17.69
2023-03-15T18:13:03.310Z,17.65
2023-03-15T18:15:32.674Z,17.68
2023-03-15T18:18:00.974Z,17.67
2023-03-15T18:20:29.316Z,17.65
2023-03-15T18:22:57.487Z,17.64
2023-03-15T18:25:27.957Z,17.61
2023-03-15T18:27:55.954Z,17.64
2023-03-15T18:30:27.218Z,17.64
2023-03-15T18:32:56.781Z,17.61
2023-03-15T18:35:28.436Z,17.62
2023-03-15T18:37:57.640Z,17.60
2023-03-15T18:40:29.760Z,17.60
2023-03-15T18:42:58.831Z,17.59
2023-03-15T18:45:32.824Z,17.58
2023-03-15T18:48:00.817Z,17.58
2023-03-15T18:50:29.572Z,17.57
2023-03-15T18:52:58.120Z,17.58
2023-03-15T18:55:26.951Z,17.57
2023-03-15T18:57:55.562Z,17.55
2023-03-15T19:00:32.878Z,17.56
2023-03-15T19:03:01.645Z,17.54
2023-03-15T19:05:33.810Z,17.54
2023-03-15T19:08:02.030Z,17.53
2023-03-15T19:10:30.884Z,17.54
2023-03-15T19:12:58.879Z,17.58
2023-03-15T19:15:27.333Z,17.58
2023-03-15T19:17:55.429Z,17.57
2023-03-15T19:20:24.660Z,17.62
2023-03-15T19:22:52.847Z,17.66
2023-03-15T19:25:21.586Z,17.69
2023-03-15T19:27:49.633Z,17.64
2023-03-15T19:30:21.356Z,17.68
2023-03-15T19:32:50.919Z,17.71
2023-03-15T19:35:20.887Z,17.68
2023-03-15T19:37:49.452Z,17.69
2023-03-15T19:40:18.585Z,17.71
2023-03-15T19:42:48.818Z,17.72
2023-03-15T19:45:18.000Z,17.72
2023-03-15T19:47:46.031Z,17.71
2023-03-15T19:50:14.971Z,17.72
2023-03-15T19:52:46.361Z,17.68
2023-03-15T19:55:18.988Z,17.67
2023-03-15T19:57:47.638Z,17.70
2023-03-15T20:00:17.266Z,17.68
2023-03-15T20:02:46.044Z,17.67
2023-03-15T20:05:17.284Z,17.64
2023-03-15T20:07:46.383Z,17.59
2023-03-15T20:10:14.943Z,17.55
2023-03-15T20:12:45.755Z,17.51
2023-03-15T20:15:16.903Z,17.49
2023-03-15T20:17:45.965Z,17.44
2023-03-15T20:20:14.940Z,17.45
2023-03-15T20:22:45.484Z,17.47
2023-03-15T20:25:16.308Z,17.44
2023-03-15T20:27:45.559Z,17.43
2023-03-15T20:30:16.853Z,17.43
2023-03-15T20:32:48.589Z,17.42
2023-03-15T20:35:17.324Z,17.41
2023-03-15T20:37:46.296Z,17.39
2023-03-15T20:40:16.054Z,17.39
2023-03-15T20:42:45.394Z,17.38
2023-03-15T20:45:14.467Z,17.36
2023-03-15T20:47:43.662Z,17.37
2023-03-15T20:50:13.477Z,17.37
2023-03-15T20:52:43.926Z,17.38
2023-03-15T20:55:13.934Z,17.39
2023-03-15T20:57:43.348Z,17.35
2023-03-15T21:00:18.668Z,17.34
2023-03-15T21:02:47.954Z,17.36
2023-03-15T21:05:17.442Z,17.32
2023-03-15T21:07:46.282Z,17.36
2023-03-15T21:10:15.133Z,17.37
2023-03-15T21:12:44.739Z,17.35
2023-03-15T21:15:18.005Z,17.36
2023-03-15T21:17:49.602Z,17.35
2023-03-15T21:20:18.734Z,17.35
2023-03-15T21:22:47.066Z,17.35
2023-03-15T21:25:15.320Z,17.34
2023-03-15T21:27:44.393Z,17.35
2023-03-15T21:30:14.117Z,17.34
2023-03-15T21:32:43.132Z,17.33
2023-03-15T21:35:11.925Z,17.29
2023-03-15T21:37:40.474Z,17.29
2023-03-15T21:40:10.223Z,17.28
2023-03-15T21:42:39.358Z,17.27
2023-03-15T21:45:08.688Z,17.29
2023-03-15T21:47:37.080Z,17.28
2023-03-15T21:50:06.163Z,17.29
2023-03-15T21:52:34.553Z,17.29
2023-03-15T21:55:02.871Z,17.27
2023-03-15T21:57:33.986Z,17.27
2023-03-15T22:00:02.537Z,17.26
2023-03-15T22:02:40.098Z,17.24
2023-03-15T22:05:09.529Z,17.26
2023-03-15T22:07:39.580Z,17.27
2023-03-15T22:10:09.968Z,17.26
2023-03-15T22:12:38.668Z,17.23
2023-03-15T22:15:07.995Z,17.27
2023-03-15T22:17:37.362Z,17.27
2023-03-15T22:20:17.170Z,17.25
2023-03-15T22:22:46.745Z,17.25
2023-03-15T22:25:15.759Z,17.23
2023-03-15T22:27:44.239Z,17.24
2023-03-15T22:30:14.349Z,17.23
2023-03-15T22:32:45.619Z,17.19
2023-03-15T22:35:16.054Z,17.22
2023-03-15T22:37:44.432Z,17.22
2023-03-15T22:40:16.886Z,17.18
2023-03-15T22:42:47.054Z,17.19
2023-03-15T22:45:15.663Z,17.20
2023-03-15T22:47:44.184Z,17.18
2023-03-15T22:50:13.961Z,17.17
2023-03-15T22:52:42.947Z,17.17
2023-03-15T22:55:12.817Z,17.14
2023-03-15T22:57:41.027Z,17.16
2023-03-15T23:00:16.538Z,17.17
2023-03-15T23:02:46.860Z,17.16
2023-03-15T23:05:16.060Z,17.15
2023-03-15T23:07:44.338Z,17.14
2023-03-15T23:10:13.152Z,17.14
2023-03-15T23:12:41.944Z,17.14
2023-03-15T23:15:12.428Z,17.11
2023-03-15T23:17:46.203Z,17.11
2023-03-15T23:20:16.951Z,17.10
2023-03-15T23:22:45.523Z,17.11
2023-03-15T23:25:16.466Z,17.10
2023-03-15T23:27:44.424Z,17.10
2023-03-15T23:30:13.761Z,17.08
2023-03-15T23:32:42.217Z,17.06
2023-03-15T23:35:15.100Z,17.05
2023-03-15T23:37:43.162Z,17.07
2023-03-15T23:40:14.347Z,17.06
2023-03-15T23:42:43.958Z,17.05
2023-03-15T23:45:15.766Z,17.07
2023-03-15T23:47:44.259Z,17.05
2023-03-15T23:50:14.235Z,17.04
2023-03-15T23:52:42.200Z,17.03
2023-03-15T23:55:11.764Z,17.04
2023-03-15T23:57:39.929Z,17.04
